Time;durP1;ratioP1;P1;durP2;ratioP2;P2;SDS_P1;SDS_P2;PMS_P1;PMS_P2;Temp;Humidity;BMP_temperature;BMP_pressure;BME280_temperature;BME280_humidity;BME280_pressure;Samples;Min_cycle;Max_cycle;Signal;HPM_P1;HPM_P2
2021/07/31 00:02:46;;;;;;;6.60;3.20;;;;;;;;;;10244154;28;20196;-74
2021/07/31 00:07:49;;;;;;;7.70;3.30;;;;;;;;;;10236772;28;20243;-73
2021/07/31 00:12:53;;;;;;;6.07;2.97;;;;;;;;;;10251754;28;20279;-73
2021/07/31 00:17:56;;;;;;;5.53;2.87;;;;;;;;;;10253234;28;20220;-73
2021/07/31 00:22:58;;;;;;;5.93;2.60;;;;;;;;;;10249336;28;20201;-72
2021/07/31 00:28:03;;;;;;;7.63;3.70;;;;;;;;;;10251672;28;20267;-72
2021/07/31 00:33:05;;;;;;;6.20;3.10;;;;;;;;;;10251802;28;20293;-72
2021/07/31 00:38:07;;;;;;;5.13;2.53;;;;;;;;;;10242353;28;20208;-74
2021/07/31 00:43:11;;;;;;;9.33;4.23;;;;;;;;;;10248496;28;20231;-74
2021/07/31 00:48:14;;;;;;;8.87;4.43;;;;;;;;;;10252273;28;20228;-74
2021/07/31 00:53:16;;;;;;;9.00;4.40;;;;;;;;;;10250719;28;20687;-74
2021/07/31 00:58:21;;;;;;;7.97;4.17;;;;;;;;;;10257222;28;20314;-74
2021/07/31 01:03:23;;;;;;;7.37;4.03;;;;;;;;;;10245481;28;20201;-74
2021/07/31 01:08:26;;;;;;;7.97;3.73;;;;;;;;;;10242142;28;20307;-73
2021/07/31 01:13:31;;;;;;;7.53;3.73;;;;;;;;;;10248843;28;20230;-74
2021/07/31 01:18:34;;;;;;;6.47;3.27;;;;;;;;;;10246407;28;20246;-74
2021/07/31 01:23:38;;;;;;;7.77;3.60;;;;;;;;;;10249190;28;20198;-73
2021/07/31 01:28:41;;;;;;;7.63;3.80;;;;;;;;;;10250365;28;20633;-75
2021/07/31 01:33:43;;;;;;;7.20;3.60;;;;;;;;;;10265008;28;20192;-75
2021/07/31 01:38:47;;;;;;;8.27;3.90;;;;;;;;;;10245463;28;20649;-75
2021/07/31 01:43:50;;;;;;;6.63;3.60;;;;;;;;;;10247343;28;20205;-75
2021/07/31 01:48:52;;;;;;;7.57;3.63;;;;;;;;;;10249592;28;20359;-75
2021/07/31 01:53:58;;;;;;;7.63;3.60;;;;;;;;;;10254549;28;20350;-75
2021/07/31 01:59:01;;;;;;;8.53;3.63;;;;;;;;;;10249723;28;20294;-75
2021/07/31 02:04:03;;;;;;;7.83;3.50;;;;;;;;;;10239854;28;20203;-76
2021/07/31 02:09:07;;;;;;;6.10;3.10;;;;;;;;;;10244230;28;20216;-76
2021/07/31 02:14:10;;;;;;;6.93;3.50;;;;;;;;;;10254282;28;20200;-76
2021/07/31 02:19:13;;;;;;;7.63;3.40;;;;;;;;;;10250315;28;20275;-75
2021/07/31 02:24:17;;;;;;;7.10;3.50;;;;;;;;;;10250019;28;20220;-75
2021/07/31 02:29:19;;;;;;;6.17;3.47;;;;;;;;;;10254203;28;20677;-75
2021/07/31 02:34:22;;;;;;;5.50;2.97;;;;;;;;;;10253614;28;20184;-73
2021/07/31 02:39:26;;;;;;;8.47;3.70;;;;;;;;;;10254685;28;20189;-74
2021/07/31 02:44:28;;;;;;;6.80;3.50;;;;;;;;;;10237824;28;20224;-75
2021/07/31 02:49:31;;;;;;;6.53;3.30;;;;;;;;;;10244183;28;20259;-74
2021/07/31 02:54:35;;;;;;;7.00;3.40;;;;;;;;;;10246221;28;20608;-74
2021/07/31 02:59:37;;;;;;;7.70;3.77;;;;;;;;;;10249675;28;20228;-75
2021/07/31 03:04:40;;;;;;;7.00;3.40;;;;;;;;;;10245809;28;20188;-74
2021/07/31 03:09:43;;;;;;;7.43;3.60;;;;;;;;;;10246198;28;20224;-74
2021/07/31 03:14:47;;;;;;;6.37;3.17;;;;;;;;;;10258762;28;20271;-74
2021/07/31 03:19:50;;;;;;;7.30;3.70;;;;;;;;;;10252039;28;20192;-74
2021/07/31 03:24:54;;;;;;;6.60;3.50;;;;;;;;;;10258083;28;20586;-73
2021/07/31 03:29:57;;;;;;;7.80;4.20;;;;;;;;;;10250881;28;20271;-73
2021/07/31 03:35:01;;;;;;;7.10;3.53;;;;;;;;;;10248384;28;20216;-73
2021/07/31 03:40:06;;;;;;;7.47;3.57;;;;;;;;;;10240429;28;20196;-75
2021/07/31 03:45:09;;;;;;;7.93;4.00;;;;;;;;;;10247362;28;20216;-74
2021/07/31 03:50:12;;;;;;;7.27;3.90;;;;;;;;;;10251390;28;20275;-74
2021/07/31 03:55:16;;;;;;;7.10;4.00;;;;;;;;;;10257074;28;20220;-74
2021/07/31 04:00:18;;;;;;;6.50;3.37;;;;;;;;;;10254690;28;20640;-76
2021/07/31 04:05:21;;;;;;;7.80;3.90;;;;;;;;;;10247982;28;20248;-74
2021/07/31 04:10:25;;;;;;;8.20;4.00;;;;;;;;;;10253121;28;20222;-74
2021/07/31 04:15:27;;;;;;;6.87;3.90;;;;;;;;;;10239656;28;20287;-74
2021/07/31 04:20:30;;;;;;;7.73;3.70;;;;;;;;;;10245193;28;20295;-74
2021/07/31 04:25:35;;;;;;;7.00;3.90;;;;;;;;;;10253733;28;20251;-73
2021/07/31 04:30:38;;;;;;;8.00;3.77;;;;;;;;;;10234145;28;20271;-74
2021/07/31 04:35:40;;;;;;;7.23;4.10;;;;;;;;;;10260643;28;20244;-74
2021/07/31 04:40:44;;;;;;;7.07;3.60;;;;;;;;;;10251860;28;20192;-74
2021/07/31 04:45:47;;;;;;;7.27;3.97;;;;;;;;;;10266810;28;20252;-74
2021/07/31 04:50:55;;;;;;;7.50;3.97;;;;;;;;;;10253084;28;20208;-74
2021/07/31 04:55:59;;;;;;;7.50;3.77;;;;;;;;;;10247642;28;20299;-74
2021/07/31 05:01:01;;;;;;;8.43;3.33;;;;;;;;;;10261446;28;20247;-75
2021/07/31 05:06:05;;;;;;;6.77;3.70;;;;;;;;;;10242136;28;20266;-74
2021/07/31 05:11:09;;;;;;;6.50;3.50;;;;;;;;;;10245302;28;20228;-74
2021/07/31 05:16:14;;;;;;;8.10;3.97;;;;;;;;;;10253836;28;20227;-74
2021/07/31 05:21:17;;;;;;;6.80;3.40;;;;;;;;;;10253181;28;20192;-74
2021/07/31 05:26:20;;;;;;;7.20;3.67;;;;;;;;;;10252007;28;20212;-75
2021/07/31 05:31:23;;;;;;;7.57;3.20;;;;;;;;;;10252944;28;20266;-73
2021/07/31 05:36:26;;;;;;;6.77;3.60;;;;;;;;;;10245836;28;20220;-74
2021/07/31 05:41:29;;;;;;;6.00;2.90;;;;;;;;;;10245015;28;20263;-75
2021/07/31 05:46:32;;;;;;;7.67;3.23;;;;;;;;;;10241780;28;20665;-73
2021/07/31 05:51:35;;;;;;;6.97;3.50;;;;;;;;;;10247186;28;20594;-73
2021/07/31 05:56:38;;;;;;;5.80;2.70;;;;;;;;;;10239909;28;20762;-73
2021/07/31 06:01:43;;;;;;;7.13;3.67;;;;;;;;;;10242521;28;20223;-72
2021/07/31 06:06:46;;;;;;;6.07;3.20;;;;;;;;;;10249738;28;20212;-74
2021/07/31 06:11:50;;;;;;;6.83;3.60;;;;;;;;;;10246273;28;20301;-72
2021/07/31 06:16:52;;;;;;;7.97;3.63;;;;;;;;;;10241182;28;20219;-72
2021/07/31 06:21:56;;;;;;;7.20;3.50;;;;;;;;;;10243533;28;20204;-73
2021/07/31 06:27:00;;;;;;;6.50;3.47;;;;;;;;;;10255744;28;20287;-73
2021/07/31 06:32:03;;;;;;;8.50;4.93;;;;;;;;;;10242866;28;20249;-73
2021/07/31 06:37:05;;;;;;;10.48;4.75;;;;;;;;;;10238345;28;20299;-74
2021/07/31 06:42:10;;;;;;;6.43;3.17;;;;;;;;;;10237786;28;20735;-74
2021/07/31 06:47:13;;;;;;;7.05;3.03;;;;;;;;;;10244096;28;20212;-75
2021/07/31 06:52:16;;;;;;;6.63;3.72;;;;;;;;;;10241527;28;20778;-75
2021/07/31 06:57:19;;;;;;;7.65;3.65;;;;;;;;;;10254554;28;20704;-74
2021/07/31 07:02:22;;;;;;;6.40;3.55;;;;;;;;;;10248735;28;20202;-74
2021/07/31 07:07:25;;;;;;;5.50;3.30;;;;;;;;;;10245738;28;20560;-75
2021/07/31 07:12:29;;;;;;;6.43;3.53;;;;;;;;;;10246985;28;20211;-74
2021/07/31 07:17:31;;;;;;;6.30;2.92;;;;;;;;;;10266565;28;20224;-74
2021/07/31 07:22:34;;;;;;;6.88;3.13;;;;;;;;;;10250382;28;20193;-73
2021/07/31 07:27:39;;;;;;;6.50;3.65;;;;;;;;;;10247685;28;20707;-72
2021/07/31 07:32:41;;;;;;;6.97;3.35;;;;;;;;;;10257080;28;20223;-71
2021/07/31 07:37:44;;;;;;;5.80;3.28;;;;;;;;;;10244490;28;20664;-71
2021/07/31 07:42:48;;;;;;;7.15;3.60;;;;;;;;;;10246986;28;20222;-71
2021/07/31 07:47:50;;;;;;;6.22;3.50;;;;;;;;;;10250045;28;20646;-70
2021/07/31 07:52:53;;;;;;;6.70;3.97;;;;;;;;;;10253965;28;20204;-72
2021/07/31 07:57:57;;;;;;;7.65;3.88;;;;;;;;;;10259693;28;20226;-71
2021/07/31 08:02:59;;;;;;;10.98;5.05;;;;;;;;;;10255615;28;20265;-72
2021/07/31 08:08:04;;;;;;;6.07;3.70;;;;;;;;;;10242812;28;20685;-71
2021/07/31 08:13:07;;;;;;;7.72;3.70;;;;;;;;;;10242931;28;20303;-72
2021/07/31 08:18:11;;;;;;;6.43;3.53;;;;;;;;;;10246521;28;20295;-70
2021/07/31 08:23:13;;;;;;;5.90;3.00;;;;;;;;;;10248928;28;20188;-71
2021/07/31 08:28:17;;;;;;;5.88;3.70;;;;;;;;;;10258148;28;20216;-71
2021/07/31 08:33:19;;;;;;;6.72;3.85;;;;;;;;;;10251088;28;20302;-72
2021/07/31 08:38:22;;;;;;;5.60;3.30;;;;;;;;;;10257675;28;20889;-71
2021/07/31 08:43:26;;;;;;;5.22;2.83;;;;;;;;;;10260707;28;20695;-72
2021/07/31 08:48:29;;;;;;;5.63;3.20;;;;;;;;;;10248116;28;20216;-72
2021/07/31 08:53:31;;;;;;;6.68;3.20;;;;;;;;;;10246435;28;20713;-71
2021/07/31 08:58:39;;;;;;;4.18;2.85;;;;;;;;;;10262486;28;20219;-71
2021/07/31 09:03:45;;;;;;;5.25;2.78;;;;;;;;;;10249699;28;20224;-72
2021/07/31 09:08:51;;;;;;;5.47;2.80;;;;;;;;;;10251783;28;20243;-71
2021/07/31 09:14:09;;;;;;;5.50;3.15;;;;;;;;;;10240595;28;20228;-73
2021/07/31 09:19:13;;;;;;;8.65;5.60;;;;;;;;;;10245796;28;20223;-73
2021/07/31 09:24:17;;;;;;;6.93;3.80;;;;;;;;;;10243907;28;20203;-72
2021/07/31 09:29:28;;;;;;;7.88;5.47;;;;;;;;;;10266441;28;20204;-73
2021/07/31 09:34:31;;;;;;;7.30;4.25;;;;;;;;;;10257875;28;20763;-73
2021/07/31 09:39:55;;;;;;;9.02;3.90;;;;;;;;;;10242213;28;20633;-73
2021/07/31 09:44:59;;;;;;;6.60;3.80;;;;;;;;;;10235877;28;20307;-74
2021/07/31 09:50:02;;;;;;;5.38;3.15;;;;;;;;;;10241475;28;20204;-73
2021/07/31 09:55:05;;;;;;;5.97;3.08;;;;;;;;;;10245821;28;20262;-75
2021/07/31 10:00:10;;;;;;;6.25;3.35;;;;;;;;;;10243644;28;20247;-75
2021/07/31 10:05:13;;;;;;;6.72;3.63;;;;;;;;;;10243753;28;20545;-73
2021/07/31 10:10:17;;;;;;;8.57;4.03;;;;;;;;;;10244946;28;20190;-74
2021/07/31 10:15:21;;;;;;;7.07;3.70;;;;;;;;;;10242231;28;20636;-74
2021/07/31 10:20:25;;;;;;;7.20;3.55;;;;;;;;;;10242346;28;20216;-74
2021/07/31 10:25:27;;;;;;;6.90;3.50;;;;;;;;;;10239239;28;20759;-74
2021/07/31 10:30:33;;;;;;;6.32;3.13;;;;;;;;;;10247792;28;20192;-72
2021/07/31 10:35:36;;;;;;;5.63;3.20;;;;;;;;;;10247203;28;20271;-73
2021/07/31 10:40:48;;;;;;;7.32;3.33;;;;;;;;;;10241614;28;20271;-74
2021/07/31 10:46:12;;;;;;;5.30;3.45;;;;;;;;;;10254081;28;20232;-75
2021/07/31 10:51:35;;;;;;;5.25;3.30;;;;;;;;;;10255590;28;20200;-75
2021/07/31 10:56:56;;;;;;;5.75;3.15;;;;;;;;;;10245871;28;20298;-76
2021/07/31 11:02:17;;;;;;;5.68;3.17;;;;;;;;;;10266572;28;20215;-74
2021/07/31 11:07:25;;;;;;;6.13;3.20;;;;;;;;;;10246863;28;20220;-75
2021/07/31 11:12:42;;;;;;;7.00;3.40;;;;;;;;;;10242167;28;20236;-74
2021/07/31 11:17:45;;;;;;;6.70;3.25;;;;;;;;;;10256740;28;20228;-75
2021/07/31 11:22:49;;;;;;;6.25;3.13;;;;;;;;;;10260108;28;20188;-76
2021/07/31 11:27:55;;;;;;;6.85;3.35;;;;;;;;;;10257802;28;20216;-76
2021/07/31 11:32:58;;;;;;;5.82;2.95;;;;;;;;;;10249321;28;20204;-75
2021/07/31 11:38:02;;;;;;;6.30;3.25;;;;;;;;;;10246859;28;20661;-76
2021/07/31 11:43:05;;;;;;;6.15;3.25;;;;;;;;;;10253489;28;20809;-75
2021/07/31 11:48:08;;;;;;;4.57;2.70;;;;;;;;;;10259033;28;20693;-76
2021/07/31 11:53:27;;;;;;;4.82;2.80;;;;;;;;;;10262979;28;20279;-74
2021/07/31 11:58:35;;;;;;;5.28;3.10;;;;;;;;;;10260007;28;20209;-76
2021/07/31 12:03:48;;;;;;;6.28;3.20;;;;;;;;;;10262192;28;20188;-75
2021/07/31 12:08:57;;;;;;;5.60;2.85;;;;;;;;;;10266202;28;20236;-75
2021/07/31 12:14:23;;;;;;;5.18;2.70;;;;;;;;;;10271791;28;20234;-75
2021/07/31 12:19:38;;;;;;;5.43;2.90;;;;;;;;;;10257858;28;20263;-76
2021/07/31 12:24:43;;;;;;;5.55;3.03;;;;;;;;;;10260639;28;20326;-76
2021/07/31 12:29:46;;;;;;;7.28;3.63;;;;;;;;;;10265998;28;20288;-75
2021/07/31 12:34:50;;;;;;;5.05;2.78;;;;;;;;;;10256786;28;20303;-76
2021/07/31 12:39:55;;;;;;;8.00;3.00;;;;;;;;;;10257795;28;20857;-75
2021/07/31 12:44:58;;;;;;;4.85;2.65;;;;;;;;;;10255233;28;20243;-75
2021/07/31 12:50:01;;;;;;;4.20;2.63;;;;;;;;;;10255084;28;20240;-75
2021/07/31 12:55:08;;;;;;;4.53;2.50;;;;;;;;;;10270219;28;20228;-77
2021/07/31 13:00:11;;;;;;;5.90;2.72;;;;;;;;;;10259694;28;20193;-76
2021/07/31 13:05:36;;;;;;;5.70;2.85;;;;;;;;;;10253059;28;20236;-75
2021/07/31 13:10:43;;;;;;;4.65;3.00;;;;;;;;;;10303846;28;20254;-76
2021/07/31 13:15:47;;;;;;;4.32;2.85;;;;;;;;;;10257060;28;20275;-74
2021/07/31 13:20:50;;;;;;;6.82;2.78;;;;;;;;;;10251522;28;20204;-76
2021/07/31 13:25:58;;;;;;;5.38;2.88;;;;;;;;;;10241937;28;20263;-75
2021/07/31 13:31:01;;;;;;;6.97;3.83;;;;;;;;;;10269482;28;20204;-75
2021/07/31 13:36:04;;;;;;;6.20;2.75;;;;;;;;;;10250165;28;20610;-74
2021/07/31 13:41:09;;;;;;;4.50;2.80;;;;;;;;;;10242940;28;20204;-74
2021/07/31 13:46:11;;;;;;;17.95;12.63;;;;;;;;;;10239040;28;20283;-75
2021/07/31 13:51:15;;;;;;;5.15;2.70;;;;;;;;;;10245052;28;20212;-75
2021/07/31 13:56:20;;;;;;;5.95;3.05;;;;;;;;;;10243568;28;20306;-74
2021/07/31 14:01:23;;;;;;;6.28;2.67;;;;;;;;;;10234546;28;20200;-74
2021/07/31 14:06:35;;;;;;;5.78;2.78;;;;;;;;;;10236771;28;20303;-75
2021/07/31 14:11:41;;;;;;;5.82;2.85;;;;;;;;;;10241448;28;20197;-74
2021/07/31 14:16:44;;;;;;;5.13;2.70;;;;;;;;;;10240605;28;20664;-74
2021/07/31 14:21:47;;;;;;;4.90;2.50;;;;;;;;;;10243001;28;20734;-75
2021/07/31 14:26:52;;;;;;;4.72;2.47;;;;;;;;;;10241761;28;20207;-75
2021/07/31 14:31:55;;;;;;;5.03;2.45;;;;;;;;;;10233945;28;20287;-73
2021/07/31 14:36:58;;;;;;;4.97;2.60;;;;;;;;;;10235187;28;20292;-75
2021/07/31 14:42:03;;;;;;;4.70;2.40;;;;;;;;;;10228851;28;20196;-73
2021/07/31 14:47:09;;;;;;;6.93;3.03;;;;;;;;;;10228237;28;20216;-75
2021/07/31 14:52:13;;;;;;;4.35;2.58;;;;;;;;;;10238436;28;20252;-74
2021/07/31 14:57:20;;;;;;;4.80;2.70;;;;;;;;;;10238445;28;20319;-76
2021/07/31 15:02:25;;;;;;;5.60;2.85;;;;;;;;;;10244434;28;20319;-75
2021/07/31 15:07:29;;;;;;;5.88;2.95;;;;;;;;;;10237757;28;20644;-74
2021/07/31 15:12:36;;;;;;;5.50;2.80;;;;;;;;;;10226865;28;20316;-74
2021/07/31 15:17:40;;;;;;;8.43;3.33;;;;;;;;;;10238763;28;20213;-73
2021/07/31 15:22:44;;;;;;;4.85;2.85;;;;;;;;;;10242755;28;20200;-75
2021/07/31 15:27:52;;;;;;;5.45;2.90;;;;;;;;;;10250299;28;20359;-75
2021/07/31 15:32:56;;;;;;;5.50;2.65;;;;;;;;;;10254468;28;20216;-75
2021/07/31 15:37:59;;;;;;;5.78;2.70;;;;;;;;;;10266268;28;20225;-75
2021/07/31 15:43:07;;;;;;;5.30;2.70;;;;;;;;;;10242567;28;20188;-74
2021/07/31 15:48:10;;;;;;;6.20;2.90;;;;;;;;;;10260421;28;20676;-74
2021/07/31 15:53:12;;;;;;;5.65;2.92;;;;;;;;;;10250968;28;20272;-74
2021/07/31 15:58:17;;;;;;;6.07;3.10;;;;;;;;;;10242845;28;20220;-74
2021/07/31 16:03:21;;;;;;;5.32;2.55;;;;;;;;;;10242088;28;20188;-73
2021/07/31 16:08:25;;;;;;;5.50;2.78;;;;;;;;;;10232947;28;20327;-74
2021/07/31 16:13:30;;;;;;;5.82;2.80;;;;;;;;;;10233856;28;20934;-74
2021/07/31 16:18:34;;;;;;;5.60;2.88;;;;;;;;;;10235953;28;21206;-72
2021/07/31 16:23:38;;;;;;;7.35;4.15;;;;;;;;;;10237396;28;20679;-73
2021/07/31 16:28:42;;;;;;;7.00;2.95;;;;;;;;;;10267816;28;20257;-72
2021/07/31 16:33:48;;;;;;;8.63;3.92;;;;;;;;;;10241763;28;20267;-75
2021/07/31 16:38:54;;;;;;;7.63;3.50;;;;;;;;;;10245995;28;20688;-72
2021/07/31 16:43:58;;;;;;;5.22;2.80;;;;;;;;;;10240158;28;20196;-73
2021/07/31 16:49:04;;;;;;;6.15;2.90;;;;;;;;;;10243288;28;20220;-72
2021/07/31 16:54:08;;;;;;;5.90;3.25;;;;;;;;;;10244992;28;20208;-72
2021/07/31 16:59:25;;;;;;;5.28;2.60;;;;;;;;;;10241693;28;20216;-71
2021/07/31 17:04:33;;;;;;;6.28;3.03;;;;;;;;;;10243794;28;20204;-71
2021/07/31 17:09:40;;;;;;;6.32;3.13;;;;;;;;;;10243888;28;20204;-71
2021/07/31 17:14:49;;;;;;;6.68;3.38;;;;;;;;;;10242438;28;20654;-72
2021/07/31 17:19:55;;;;;;;7.28;3.38;;;;;;;;;;10255285;28;20208;-72
2021/07/31 17:25:02;;;;;;;9.38;4.05;;;;;;;;;;10246040;28;20216;-72
2021/07/31 17:30:09;;;;;;;6.43;3.20;;;;;;;;;;10250297;28;20539;-71
2021/07/31 17:35:13;;;;;;;8.25;3.60;;;;;;;;;;10263610;28;20609;-71
2021/07/31 17:40:21;;;;;;;7.15;3.58;;;;;;;;;;10256745;28;20212;-72
2021/07/31 17:45:27;;;;;;;7.43;3.50;;;;;;;;;;10259564;28;20270;-72
2021/07/31 17:50:30;;;;;;;8.05;4.55;;;;;;;;;;10243928;28;20672;-72
2021/07/31 17:55:33;;;;;;;7.00;4.65;;;;;;;;;;10254705;28;20258;-72
2021/07/31 18:00:39;;;;;;;5.47;2.97;;;;;;;;;;10241288;28;20205;-72
2021/07/31 18:05:42;;;;;;;4.38;2.70;;;;;;;;;;10237883;28;20214;-73
2021/07/31 18:10:46;;;;;;;7.43;3.75;;;;;;;;;;10243543;28;20203;-73
2021/07/31 18:15:55;;;;;;;6.10;3.28;;;;;;;;;;10238345;28;20593;-72
2021/07/31 18:21:05;;;;;;;8.70;3.35;;;;;;;;;;10243618;28;20200;-73
2021/07/31 18:26:09;;;;;;;8.52;3.97;;;;;;;;;;10241481;28;20208;-73
2021/07/31 18:31:14;;;;;;;6.75;3.33;;;;;;;;;;10250319;28;20346;-72
2021/07/31 18:36:18;;;;;;;7.47;3.05;;;;;;;;;;10239026;28;20235;-72
2021/07/31 18:41:27;;;;;;;7.63;3.60;;;;;;;;;;10223960;28;20287;-73
2021/07/31 18:46:32;;;;;;;9.30;4.37;;;;;;;;;;10224807;28;20562;-71
2021/07/31 18:51:35;;;;;;;8.75;4.20;;;;;;;;;;10241986;28;20584;-72
2021/07/31 18:56:40;;;;;;;7.77;3.53;;;;;;;;;;10238025;28;20314;-73
2021/07/31 19:01:45;;;;;;;7.50;3.90;;;;;;;;;;10264283;28;20195;-72
2021/07/31 19:06:48;;;;;;;7.67;3.83;;;;;;;;;;10255164;28;20204;-72
2021/07/31 19:11:52;;;;;;;10.70;4.30;;;;;;;;;;10267573;28;20683;-72
2021/07/31 19:16:57;;;;;;;4.20;2.30;;;;;;;;;;10284625;28;20283;-72
2021/07/31 19:22:00;;;;;;;6.93;3.57;;;;;;;;;;10263978;28;20218;-71
2021/07/31 19:27:04;;;;;;;8.37;3.40;;;;;;;;;;10266435;28;20208;-75
2021/07/31 19:32:09;;;;;;;6.87;3.30;;;;;;;;;;10268139;28;20197;-74
2021/07/31 19:37:12;;;;;;;5.60;3.03;;;;;;;;;;10268174;28;20216;-71
2021/07/31 19:42:16;;;;;;;7.50;3.50;;;;;;;;;;10264213;28;20287;-71
2021/07/31 19:47:23;;;;;;;7.10;3.70;;;;;;;;;;10266067;28;20263;-71
2021/07/31 19:52:26;;;;;;;7.70;3.50;;;;;;;;;;10263813;28;20604;-72
2021/07/31 19:57:30;;;;;;;6.07;3.27;;;;;;;;;;10282189;28;20216;-72
2021/07/31 20:02:34;;;;;;;6.40;3.60;;;;;;;;;;10255519;28;20194;-72
2021/07/31 20:07:41;;;;;;;5.93;3.30;;;;;;;;;;10242030;28;20224;-73
2021/07/31 20:12:44;;;;;;;8.07;3.70;;;;;;;;;;10278655;28;20683;-71
2021/07/31 20:17:52;;;;;;;6.30;3.70;;;;;;;;;;10260003;28;20224;-71
2021/07/31 20:22:55;;;;;;;5.80;3.30;;;;;;;;;;10258237;28;20208;-72
2021/07/31 20:27:58;;;;;;;7.07;3.87;;;;;;;;;;10262996;28;20212;-70
2021/07/31 20:33:03;;;;;;;6.87;3.70;;;;;;;;;;10255859;28;20196;-72
2021/07/31 20:38:08;;;;;;;8.03;4.07;;;;;;;;;;10258127;28;20224;-71
2021/07/31 20:43:15;;;;;;;8.63;4.10;;;;;;;;;;10261001;28;20259;-72
2021/07/31 20:48:24;;;;;;;7.13;4.07;;;;;;;;;;10267291;28;20235;-72
2021/07/31 20:53:28;;;;;;;6.43;3.20;;;;;;;;;;10271281;28;20284;-71
2021/07/31 20:58:34;;;;;;;7.50;3.90;;;;;;;;;;10269004;28;20223;-71
2021/07/31 21:03:39;;;;;;;7.63;3.60;;;;;;;;;;10246413;28;20283;-71
2021/07/31 21:08:48;;;;;;;6.80;3.33;;;;;;;;;;10237716;28;20236;-71
2021/07/31 21:13:53;;;;;;;6.93;3.47;;;;;;;;;;10247539;28;20680;-71
2021/07/31 21:18:59;;;;;;;7.33;3.50;;;;;;;;;;10254961;28;20588;-71
2021/07/31 21:24:02;;;;;;;6.67;3.20;;;;;;;;;;10236454;28;20286;-71
2021/07/31 21:29:05;;;;;;;8.43;3.83;;;;;;;;;;10242752;28;20284;-71
2021/07/31 21:34:11;;;;;;;9.17;4.93;;;;;;;;;;10238160;28;20657;-72
2021/07/31 21:39:16;;;;;;;6.83;4.00;;;;;;;;;;10238282;28;20220;-71
2021/07/31 21:44:19;;;;;;;8.03;4.20;;;;;;;;;;10239151;28;20197;-72
2021/07/31 21:49:23;;;;;;;8.63;4.67;;;;;;;;;;10253542;28;20212;-72
2021/07/31 21:54:25;;;;;;;9.37;5.83;;;;;;;;;;10245447;28;20657;-72
2021/07/31 21:59:28;;;;;;;9.40;4.77;;;;;;;;;;10255716;28;20305;-72
2021/07/31 22:04:31;;;;;;;7.63;3.87;;;;;;;;;;10257445;28;20219;-72
2021/07/31 22:09:34;;;;;;;7.20;3.33;;;;;;;;;;10247016;28;20227;-72
2021/07/31 22:14:37;;;;;;;8.00;4.00;;;;;;;;;;10254433;28;20304;-72
2021/07/31 22:19:41;;;;;;;7.30;3.60;;;;;;;;;;10247839;28;20223;-73
2021/07/31 22:24:43;;;;;;;7.50;3.80;;;;;;;;;;10231984;28;20609;-73
2021/07/31 22:29:46;;;;;;;5.97;3.30;;;;;;;;;;10247333;28;20649;-73
2021/07/31 22:34:50;;;;;;;6.67;3.47;;;;;;;;;;10242726;28;20197;-72
2021/07/31 22:39:52;;;;;;;7.63;3.90;;;;;;;;;;10241164;28;20439;-73
2021/07/31 22:44:55;;;;;;;8.43;4.00;;;;;;;;;;10251203;28;20247;-72
2021/07/31 22:49:59;;;;;;;8.60;3.60;;;;;;;;;;10237536;28;20823;-72
2021/07/31 22:55:01;;;;;;;7.67;3.80;;;;;;;;;;10246298;28;20687;-71
2021/07/31 23:00:05;;;;;;;7.77;3.90;;;;;;;;;;10236380;28;20192;-72
2021/07/31 23:05:10;;;;;;;7.20;4.03;;;;;;;;;;10236668;28;20307;-72
2021/07/31 23:10:12;;;;;;;8.13;4.30;;;;;;;;;;10243397;28;20204;-72
2021/07/31 23:15:15;;;;;;;8.60;4.20;;;;;;;;;;10244495;28;20232;-71
2021/07/31 23:20:19;;;;;;;7.47;4.40;;;;;;;;;;10245381;28;20196;-73
2021/07/31 23:25:22;;;;;;;11.63;4.27;;;;;;;;;;10239748;28;20287;-73
2021/07/31 23:30:24;;;;;;;11.20;3.83;;;;;;;;;;10241733;28;20201;-73
2021/07/31 23:35:28;;;;;;;7.03;3.63;;;;;;;;;;10237396;28;20731;-72
2021/07/31 23:40:31;;;;;;;8.10;3.77;;;;;;;;;;10240473;28;20224;-72
2021/07/31 23:45:34;;;;;;;7.33;3.70;;;;;;;;;;10243453;28;20204;-72
2021/07/31 23:50:38;;;;;;;7.27;3.50;;;;;;;;;;10248157;28;20196;-72
2021/07/31 23:55:40;;;;;;;8.07;3.83;;;;;;;;;;10253661;28;20632;-73
